Overview Statistics Trail Chart Weather Telemetry Raw packets
 

This is the latest recevied weather packets stored in our database for station/object SQ9SMC-13. If no packets are shown the sender has not sent any weather packets the latest 10 day(s).

<< 63 64 65 66 67 68 69 >>
Time Temp. Humidity Pressure Rain* Wind** Luminosity Snow
1777266904 3.33° C 68% 1025.2 hPa 0 mm - 91 W/m² -
1777266604 2.78° C 73% 1025.1 hPa 0 mm - 81 W/m² -
1777266304 2.22° C 75% 1025.2 hPa 0 mm - 69 W/m² -
1777266003 1.67° C 76% 1025.3 hPa 0 mm - 57 W/m² -
1777265702 1.11° C 76% 1025 hPa 0 mm - 50 W/m² -
1777265404 1.67° C 73% 1025.1 hPa 0 mm - 46 W/m² -
1777265103 1.11° C 76% 1025 hPa 0 mm - 45 W/m² -
1777264803 0° C 79% 1025 hPa 0 mm - 55 W/m² -
1777264503 0° C 80% 1025.3 hPa 0 mm - 50 W/m² -
1777264203 -0.56° C 80% 1025.1 hPa 0 mm - 44 W/m² -
1777263902 -1.11° C 85% 1025 hPa 0 mm - 39 W/m² -
1777263603 -1.67° C 89% 1024.8 hPa 0 mm - 34 W/m² -
1777263303 -2.22° C 92% 1024.7 hPa 0 mm - 29 W/m² -
1777263003 -3.33° C 93% 1024.7 hPa 0 mm - 23 W/m² -
1777262702 -3.33° C 93% 1024.9 hPa 0 mm - 18 W/m² -
1777262408 -3.89° C 92% 1024.6 hPa 0 mm - 13 W/m² -
1777262103 -3.89° C 92% 1024.7 hPa 0 mm - 10 W/m² -
1777261803 -3.89° C 92% 1024.7 hPa 0 mm - 9 W/m² -
1777261502 -3.33° C 91% 1024.8 hPa 0 mm - 7 W/m² -
1777261204 -3.33° C 91% 1024.8 hPa 0 mm - 6 W/m² -
1777260902 -3.33° C 91% 1024.7 hPa 0 mm - 4 W/m² -
1777260607 -2.78° C 92% 1024.6 hPa 0 mm - 2 W/m² -
1777260303 -3.33° C 92% 1024.7 hPa 0 mm - 1 W/m² -
1777260002 -3.33° C 92% 1024.8 hPa 0 mm - 1 W/m² -
1777259704 -3.33° C 92% 1024.8 hPa 0 mm - 0 W/m² -

* Rain latest hour (hover to see other rain measurements)
** Current wind speed in m/s (hover to see current wind gust speed)